createdAt,value
2023-05-16T00:00:48.813Z,11.36
2023-05-16T00:03:27.715Z,11.35
2023-05-16T00:05:57.577Z,11.36
2023-05-16T00:08:28.061Z,11.38
2023-05-16T00:10:57.042Z,11.40
2023-05-16T00:13:30.043Z,11.42
2023-05-16T00:16:07.747Z,11.44
2023-05-16T00:18:38.945Z,11.46
2023-05-16T00:21:23.801Z,11.46
2023-05-16T00:23:55.320Z,11.44
2023-05-16T00:26:24.191Z,11.44
2023-05-16T00:28:53.074Z,11.42
2023-05-16T00:31:22.829Z,11.42
2023-05-16T00:33:56.682Z,11.43
2023-05-16T00:36:31.294Z,11.41
2023-05-16T00:39:03.308Z,11.38
2023-05-16T00:41:31.999Z,11.37
2023-05-16T00:44:06.040Z,11.37
2023-05-16T00:46:35.673Z,11.37
2023-05-16T00:49:08.411Z,11.39
2023-05-16T00:51:40.940Z,11.41
2023-05-16T00:54:10.565Z,11.43
2023-05-16T00:56:39.557Z,11.45
2023-05-16T00:59:08.721Z,11.47
2023-05-16T01:01:40.622Z,11.47
2023-05-16T01:04:10.487Z,11.49
2023-05-16T01:06:39.166Z,11.49
2023-05-16T01:09:09.433Z,11.49
2023-05-16T01:11:50.748Z,11.51
2023-05-16T01:14:26.662Z,11.53
2023-05-16T01:17:08.390Z,11.53
2023-05-16T01:19:56.310Z,11.52
2023-05-16T01:22:37.557Z,11.50
2023-05-16T01:25:21.874Z,11.49
2023-05-16T01:27:58.112Z,11.47
2023-05-16T01:30:33.242Z,11.46
2023-05-16T01:33:02.724Z,11.45
2023-05-16T01:35:36.153Z,11.44
2023-05-16T01:38:16.042Z,11.44
2023-05-16T01:40:53.778Z,11.45
2023-05-16T01:43:30.763Z,11.48
2023-05-16T01:46:11.656Z,11.50
2023-05-16T01:48:51.491Z,11.50
2023-05-16T01:51:22.627Z,11.49
2023-05-16T01:53:58.619Z,11.49
2023-05-16T01:56:29.244Z,11.48
2023-05-16T01:58:59.499Z,11.46
2023-05-16T02:01:31.174Z,11.44
2023-05-16T02:04:03.044Z,11.41
2023-05-16T02:06:32.252Z,11.40
2023-05-16T02:09:04.675Z,11.39
2023-05-16T02:11:34.964Z,11.39
2023-05-16T02:14:04.918Z,11.39
2023-05-16T02:16:38.088Z,11.38
2023-05-16T02:19:08.818Z,11.34
2023-05-16T02:21:38.195Z,11.30
2023-05-16T02:24:09.963Z,11.29
2023-05-16T02:26:43.763Z,11.29
2023-05-16T02:29:12.756Z,11.27
2023-05-16T02:31:45.032Z,11.27
2023-05-16T02:34:14.869Z,11.26
2023-05-16T02:36:45.382Z,11.25
2023-05-16T02:39:14.665Z,11.24
2023-05-16T02:41:43.817Z,11.23
2023-05-16T02:44:16.095Z,11.18
2023-05-16T02:46:48.626Z,11.13
2023-05-16T02:49:17.738Z,11.09
2023-05-16T02:51:47.360Z,11.06
2023-05-16T02:54:16.637Z,11.03
2023-05-16T02:56:45.848Z,11.00
2023-05-16T02:59:17.067Z,11.01
2023-05-16T03:01:45.771Z,11.02
2023-05-16T03:04:14.584Z,11.02
2023-05-16T03:06:43.664Z,11.01
2023-05-16T03:09:12.745Z,11.01
2023-05-16T03:11:42.958Z,11.01
2023-05-16T03:14:13.722Z,10.99
2023-05-16T03:16:43.500Z,10.98
2023-05-16T03:19:14.169Z,10.95
2023-05-16T03:21:44.614Z,10.95
2023-05-16T03:24:16.884Z,10.94
2023-05-16T03:26:48.036Z,10.92
2023-05-16T03:29:17.165Z,10.91
2023-05-16T03:32:21.401Z,10.94
2023-05-16T03:35:14.182Z,10.99
2023-05-16T03:37:45.673Z,10.97
2023-05-16T03:40:18.286Z,10.96
2023-05-16T03:42:51.340Z,10.95
2023-05-16T03:45:21.004Z,10.93
2023-05-16T03:47:50.829Z,10.97
2023-05-16T03:50:19.900Z,11.03
2023-05-16T03:53:08.146Z,11.06
2023-05-16T03:55:39.169Z,11.06
2023-05-16T03:58:10.219Z,11.08
2023-05-16T04:00:40.984Z,11.10
2023-05-16T04:03:12.865Z,11.15
2023-05-16T04:05:41.901Z,11.40
2023-05-16T04:08:12.683Z,11.85
2023-05-16T04:10:41.608Z,12.01
2023-05-16T04:13:15.829Z,12.41
2023-05-16T04:15:47.306Z,12.91
2023-05-16T04:18:16.300Z,13.16
2023-05-16T04:20:47.446Z,13.16
2023-05-16T04:23:16.159Z,13.39
2023-05-16T04:25:45.667Z,13.58
2023-05-16T04:28:15.371Z,13.57
2023-05-16T04:30:43.945Z,13.50
2023-05-16T04:33:13.350Z,13.71
2023-05-16T04:35:47.745Z,14.58
2023-05-16T04:38:17.011Z,15.49
2023-05-16T04:40:46.504Z,16.33
2023-05-16T04:43:17.522Z,16.71
2023-05-16T04:45:50.160Z,16.83
2023-05-16T04:48:21.484Z,17.31
2023-05-16T04:50:50.732Z,18.09
2023-05-16T04:53:19.501Z,18.79
2023-05-16T04:55:48.699Z,19.33
2023-05-16T04:58:17.475Z,19.73
2023-05-16T05:00:47.009Z,20.14
2023-05-16T05:03:19.068Z,20.48
2023-05-16T05:05:51.238Z,20.84
2023-05-16T05:08:21.338Z,21.19
2023-05-16T05:10:50.052Z,21.53
2023-05-16T05:13:29.368Z,21.77
2023-05-16T05:16:01.610Z,22.16
2023-05-16T05:18:31.536Z,22.44
2023-05-16T05:21:01.770Z,22.66
2023-05-16T05:23:31.062Z,22.73
2023-05-16T05:26:02.454Z,22.55
2023-05-16T05:28:33.999Z,22.16
2023-05-16T05:31:04.014Z,21.75
2023-05-16T05:33:33.503Z,21.77
2023-05-16T05:36:04.034Z,21.88
2023-05-16T05:38:35.793Z,22.04
2023-05-16T05:41:07.259Z,21.92
2023-05-16T05:43:38.040Z,22.12
2023-05-16T05:46:08.631Z,22.24
2023-05-16T05:48:37.830Z,22.01
2023-05-16T05:51:07.596Z,21.28
2023-05-16T05:53:39.220Z,20.58
2023-05-16T05:56:09.085Z,19.94
2023-05-16T05:58:38.817Z,19.14
2023-05-16T06:01:12.003Z,18.50
2023-05-16T06:03:49.363Z,17.95
2023-05-16T06:06:22.272Z,17.46
2023-05-16T06:08:55.184Z,17.01
2023-05-16T06:11:25.013Z,16.52
2023-05-16T06:13:53.928Z,16.14
2023-05-16T06:16:26.564Z,15.96
2023-05-16T06:18:55.697Z,15.69
2023-05-16T06:21:24.651Z,15.43
2023-05-16T06:23:53.640Z,15.28
2023-05-16T06:26:25.392Z,15.15
2023-05-16T06:28:54.019Z,15.01
2023-05-16T06:31:23.522Z,14.86
2023-05-16T06:33:54.719Z,14.74
2023-05-16T06:36:24.338Z,14.66
2023-05-16T06:38:53.138Z,14.55
2023-05-16T06:41:21.863Z,14.39
2023-05-16T06:43:51.217Z,14.28
2023-05-16T06:46:21.941Z,14.22
2023-05-16T06:48:50.687Z,14.16
2023-05-16T06:51:20.381Z,14.09
2023-05-16T06:53:49.278Z,13.97
2023-05-16T06:56:19.029Z,13.84
2023-05-16T06:58:48.973Z,13.72
2023-05-16T07:01:20.170Z,13.65
2023-05-16T07:03:48.986Z,13.61
2023-05-16T07:06:22.298Z,13.59
2023-05-16T07:08:53.032Z,13.60
2023-05-16T07:11:23.252Z,13.71
2023-05-16T07:13:52.532Z,13.78
2023-05-16T07:16:22.316Z,13.83
2023-05-16T07:18:53.597Z,13.94
2023-05-16T07:21:23.242Z,14.01
2023-05-16T07:23:52.295Z,14.06
2023-05-16T07:26:29.836Z,14.03
2023-05-16T07:28:58.751Z,14.04
2023-05-16T07:31:27.975Z,14.04
2023-05-16T07:33:56.694Z,14.02
2023-05-16T07:36:25.454Z,14.04
2023-05-16T07:38:54.137Z,14.07
2023-05-16T07:41:25.102Z,14.12
2023-05-16T07:43:54.351Z,14.14
2023-05-16T07:46:24.737Z,14.20
2023-05-16T07:49:00.836Z,14.32
2023-05-16T07:51:30.038Z,14.47
2023-05-16T07:53:58.812Z,14.67
2023-05-16T07:56:28.065Z,14.88
2023-05-16T07:58:57.111Z,15.09
2023-05-16T08:01:30.089Z,15.12
2023-05-16T08:03:59.151Z,15.15
2023-05-16T08:06:29.166Z,15.18
2023-05-16T08:08:57.992Z,15.26
2023-05-16T08:11:29.590Z,15.36
2023-05-16T08:13:58.249Z,15.35
2023-05-16T08:16:27.264Z,15.35
2023-05-16T08:18:56.038Z,15.35
2023-05-16T08:21:24.971Z,15.40
2023-05-16T08:23:54.128Z,15.40
2023-05-16T08:26:23.448Z,15.35
2023-05-16T08:28:52.363Z,15.39
2023-05-16T08:31:22.477Z,15.41
2023-05-16T08:33:51.394Z,15.35
2023-05-16T08:36:20.595Z,15.36
2023-05-16T08:38:50.571Z,15.54
2023-05-16T08:41:19.804Z,15.81
2023-05-16T08:43:49.815Z,15.99
2023-05-16T08:46:22.029Z,16.12
2023-05-16T08:48:53.389Z,16.18
2023-05-16T08:51:31.056Z,16.24
2023-05-16T08:54:04.222Z,16.29
2023-05-16T08:56:37.947Z,16.42
2023-05-16T08:59:12.502Z,16.49
2023-05-16T09:01:57.298Z,16.61
2023-05-16T09:04:27.170Z,16.72
2023-05-16T09:06:58.292Z,16.70
2023-05-16T09:09:27.137Z,16.74
2023-05-16T09:11:57.449Z,16.69
2023-05-16T09:14:26.542Z,16.61
2023-05-16T09:17:12.631Z,16.52
2023-05-16T09:19:42.699Z,16.51
2023-05-16T09:22:15.832Z,16.47
2023-05-16T09:24:47.020Z,16.45
2023-05-16T09:27:18.273Z,16.54
2023-05-16T09:29:51.446Z,16.81
2023-05-16T09:32:25.525Z,17.10
2023-05-16T09:34:58.186Z,17.32
2023-05-16T09:37:27.798Z,17.48
2023-05-16T09:39:58.888Z,17.52
2023-05-16T09:42:28.220Z,17.49
2023-05-16T09:44:59.668Z,17.45
2023-05-16T09:47:31.813Z,17.36
2023-05-16T09:50:01.473Z,17.32
2023-05-16T09:52:32.833Z,17.23
2023-05-16T09:55:07.347Z,17.24
2023-05-16T09:57:39.712Z,17.24
2023-05-16T10:00:24.646Z,17.28
2023-05-16T10:02:59.130Z,17.24
2023-05-16T10:05:31.213Z,17.20
2023-05-16T10:08:04.610Z,17.18
2023-05-16T10:10:38.437Z,17.23
2023-05-16T10:13:11.026Z,17.20
2023-05-16T10:15:43.698Z,17.17
2023-05-16T10:18:13.966Z,17.26
2023-05-16T10:20:48.611Z,17.30
2023-05-16T10:23:20.033Z,17.25
2023-05-16T10:25:59.146Z,17.19
2023-05-16T10:28:29.977Z,17.12
2023-05-16T10:31:01.473Z,17.22
2023-05-16T10:33:35.670Z,17.58
2023-05-16T10:36:09.152Z,17.93
2023-05-16T10:38:41.818Z,18.10
2023-05-16T10:41:13.390Z,18.15
2023-05-16T10:43:55.898Z,18.12
2023-05-16T10:46:31.401Z,18.09
2023-05-16T10:49:19.378Z,18.09
2023-05-16T10:52:13.181Z,18.05
2023-05-16T10:54:44.386Z,17.98
2023-05-16T10:57:21.729Z,17.97
2023-05-16T10:59:53.039Z,17.99
2023-05-16T11:02:33.243Z,18.01
2023-05-16T11:05:02.882Z,18.06
2023-05-16T11:07:38.134Z,18.06
2023-05-16T11:10:16.509Z,18.05
2023-05-16T11:12:50.060Z,18.15
2023-05-16T11:15:25.614Z,18.26
2023-05-16T11:18:07.830Z,18.39
2023-05-16T11:20:39.033Z,18.43
2023-05-16T11:23:25.673Z,18.45
2023-05-16T11:25:57.825Z,18.51
2023-05-16T11:28:27.536Z,18.53
2023-05-16T11:30:59.461Z,18.53
2023-05-16T11:33:35.719Z,18.50
2023-05-16T11:36:15.711Z,18.44
2023-05-16T11:38:46.096Z,18.37
2023-05-16T11:41:17.213Z,18.35
2023-05-16T11:43:50.971Z,18.45
2023-05-16T11:46:20.706Z,18.76
2023-05-16T11:48:53.066Z,18.97
2023-05-16T11:51:24.898Z,19.05
2023-05-16T11:53:55.855Z,19.08
2023-05-16T11:56:24.831Z,19.11
2023-05-16T11:58:58.895Z,19.18
2023-05-16T12:01:35.542Z,19.28
2023-05-16T12:04:10.630Z,19.40
2023-05-16T12:06:44.601Z,19.52
2023-05-16T12:09:19.849Z,19.75
2023-05-16T12:11:49.675Z,19.94
2023-05-16T12:14:19.941Z,19.99
2023-05-16T12:17:15.663Z,19.94
2023-05-16T12:19:46.968Z,19.92
2023-05-16T12:22:19.848Z,19.86
2023-05-16T12:24:49.048Z,19.89
2023-05-16T12:27:28.862Z,19.87
2023-05-16T12:29:59.628Z,19.76
2023-05-16T12:32:33.268Z,19.61
2023-05-16T12:35:03.736Z,19.57
2023-05-16T12:37:33.626Z,19.60
2023-05-16T12:40:10.298Z,19.60
2023-05-16T12:42:39.705Z,19.54
2023-05-16T12:45:18.658Z,19.41
2023-05-16T12:47:47.837Z,19.32
2023-05-16T12:50:18.908Z,19.20
2023-05-16T12:52:50.788Z,19.13
2023-05-16T12:55:23.839Z,19.16
2023-05-16T12:58:04.109Z,19.15
2023-05-16T13:00:33.342Z,19.00
2023-05-16T13:03:08.598Z,18.94
2023-05-16T13:05:37.475Z,18.86
2023-05-16T13:08:09.029Z,18.76
2023-05-16T13:10:40.894Z,18.57
2023-05-16T13:13:25.078Z,18.49
2023-05-16T13:16:03.374Z,18.48
2023-05-16T13:18:39.688Z,18.41
2023-05-16T13:21:10.003Z,18.38
2023-05-16T13:23:38.826Z,18.43
2023-05-16T13:26:12.837Z,18.61
2023-05-16T13:28:44.869Z,18.79
2023-05-16T13:31:16.127Z,18.93
2023-05-16T13:33:47.153Z,19.02
2023-05-16T13:36:18.871Z,19.11
2023-05-16T13:38:51.179Z,19.19
2023-05-16T13:41:25.834Z,19.23
2023-05-16T13:44:00.049Z,19.27
2023-05-16T13:46:31.859Z,19.22
2023-05-16T13:49:07.448Z,19.28
2023-05-16T13:51:36.760Z,19.39
2023-05-16T13:54:06.101Z,19.42
2023-05-16T13:56:35.992Z,19.33
2023-05-16T13:59:15.239Z,19.28
2023-05-16T14:01:57.126Z,19.39
2023-05-16T14:04:26.080Z,19.51
2023-05-16T14:06:56.217Z,19.58
2023-05-16T14:09:25.218Z,19.64
2023-05-16T14:11:56.368Z,19.70
2023-05-16T14:14:25.056Z,19.60
2023-05-16T14:17:00.456Z,19.47
2023-05-16T14:19:32.064Z,19.38
2023-05-16T14:22:09.453Z,19.37
2023-05-16T14:24:38.500Z,19.35
2023-05-16T14:27:17.739Z,19.37
2023-05-16T14:29:48.310Z,19.44
2023-05-16T14:32:19.913Z,19.48
2023-05-16T14:34:52.011Z,19.46
2023-05-16T14:37:22.049Z,19.43
2023-05-16T14:39:52.534Z,19.39
2023-05-16T14:42:24.185Z,19.34
2023-05-16T14:44:55.237Z,19.34
2023-05-16T14:47:28.426Z,19.31
2023-05-16T14:49:57.969Z,19.28
2023-05-16T14:52:29.193Z,19.24
2023-05-16T14:54:59.611Z,19.22
2023-05-16T14:57:28.584Z,19.19
2023-05-16T14:59:58.609Z,19.16
2023-05-16T15:02:27.548Z,19.17
2023-05-16T15:04:56.212Z,19.13
2023-05-16T15:07:25.896Z,19.03
2023-05-16T15:09:54.792Z,18.96
2023-05-16T15:12:23.839Z,18.95
2023-05-16T15:14:52.949Z,18.92
2023-05-16T15:17:22.038Z,18.86
2023-05-16T15:19:52.673Z,18.83
2023-05-16T15:22:21.588Z,18.87
2023-05-16T15:24:50.653Z,18.86
2023-05-16T15:27:19.741Z,18.83
2023-05-16T15:29:49.127Z,18.82
2023-05-16T15:32:26.232Z,18.77
2023-05-16T15:34:55.129Z,18.79
2023-05-16T15:37:26.366Z,18.80
2023-05-16T15:39:56.349Z,18.83
2023-05-16T15:42:25.684Z,18.84
2023-05-16T15:44:54.290Z,18.75
2023-05-16T15:47:23.476Z,18.71
2023-05-16T15:49:52.320Z,18.68
2023-05-16T15:52:27.315Z,18.67
2023-05-16T15:54:57.117Z,18.70
2023-05-16T15:57:26.223Z,18.70
2023-05-16T15:59:54.975Z,18.66
2023-05-16T16:02:24.681Z,18.59
2023-05-16T16:04:55.854Z,18.52
2023-05-16T16:07:25.908Z,18.48
2023-05-16T16:09:54.926Z,18.42
2023-05-16T16:12:29.149Z,18.36
2023-05-16T16:14:58.456Z,18.33
2023-05-16T16:17:27.895Z,18.33
2023-05-16T16:19:56.842Z,18.32
2023-05-16T16:22:29.562Z,18.29
2023-05-16T16:25:03.031Z,18.24
2023-05-16T16:27:32.723Z,18.21
2023-05-16T16:30:01.485Z,18.11
2023-05-16T16:32:30.758Z,18.02
2023-05-16T16:35:03.141Z,17.96
2023-05-16T16:37:32.840Z,17.92
2023-05-16T16:40:01.902Z,17.90
2023-05-16T16:42:30.813Z,17.86
2023-05-16T16:44:59.873Z,17.81
2023-05-16T16:47:28.719Z,17.79
2023-05-16T16:49:57.244Z,17.75
2023-05-16T16:52:29.316Z,17.71
2023-05-16T16:54:58.309Z,17.66
2023-05-16T16:57:27.705Z,17.63
2023-05-16T16:59:59.002Z,17.60
2023-05-16T17:02:28.920Z,17.56
2023-05-16T17:05:00.904Z,17.54
2023-05-16T17:07:29.589Z,17.52
2023-05-16T17:10:03.479Z,17.50
2023-05-16T17:12:34.440Z,17.48
2023-05-16T17:15:14.723Z,17.47
2023-05-16T17:17:45.713Z,17.45
2023-05-16T17:20:15.168Z,17.42
2023-05-16T17:22:48.308Z,17.39
2023-05-16T17:25:18.577Z,17.35
2023-05-16T17:27:47.426Z,17.29
2023-05-16T17:30:18.545Z,17.24
2023-05-16T17:32:48.994Z,17.18
2023-05-16T17:35:19.716Z,17.13
2023-05-16T17:37:50.067Z,17.09
2023-05-16T17:40:19.555Z,17.05
2023-05-16T17:42:48.449Z,17.00
2023-05-16T17:45:17.722Z,16.92
2023-05-16T17:47:49.978Z,16.84
2023-05-16T17:50:19.796Z,16.78
2023-05-16T17:52:51.852Z,16.71
2023-05-16T17:55:22.525Z,16.65
2023-05-16T17:58:08.829Z,16.58
2023-05-16T18:00:37.990Z,16.48
2023-05-16T18:03:11.568Z,16.41
2023-05-16T18:05:42.611Z,16.34
2023-05-16T18:08:14.161Z,16.25
2023-05-16T18:10:51.661Z,16.19
2023-05-16T18:13:23.550Z,16.11
2023-05-16T18:15:52.664Z,16.01
2023-05-16T18:18:27.361Z,15.92
2023-05-16T18:21:00.345Z,15.87
2023-05-16T18:23:35.855Z,15.82
2023-05-16T18:26:09.468Z,15.75
2023-05-16T18:28:41.666Z,15.68
2023-05-16T18:31:20.855Z,15.61
2023-05-16T18:33:50.536Z,15.53
2023-05-16T18:36:19.844Z,15.47
2023-05-16T18:38:49.466Z,15.39
2023-05-16T18:41:22.913Z,15.31
2023-05-16T18:43:54.816Z,15.25
2023-05-16T18:46:27.497Z,15.25
2023-05-16T18:48:59.538Z,15.22
2023-05-16T18:51:28.692Z,15.19
2023-05-16T18:54:03.614Z,15.16
2023-05-16T18:56:36.946Z,15.12
2023-05-16T18:59:07.685Z,15.08
2023-05-16T19:01:37.742Z,15.01
2023-05-16T19:04:13.296Z,14.97
2023-05-16T19:06:43.694Z,14.94
2023-05-16T19:09:17.082Z,14.90
2023-05-16T19:11:49.465Z,14.87
2023-05-16T19:14:18.757Z,14.83
2023-05-16T19:16:59.923Z,14.80
2023-05-16T19:19:31.786Z,14.78
2023-05-16T19:22:01.032Z,14.77
2023-05-16T19:24:30.305Z,14.76
2023-05-16T19:27:02.084Z,14.72
2023-05-16T19:29:34.784Z,14.66
2023-05-16T19:32:04.360Z,14.62
2023-05-16T19:34:36.873Z,14.58
2023-05-16T19:37:09.132Z,14.56
2023-05-16T19:39:41.807Z,14.53
2023-05-16T19:42:11.602Z,14.51
2023-05-16T19:44:43.131Z,14.47
2023-05-16T19:47:27.233Z,14.45
2023-05-16T19:49:58.987Z,14.44
2023-05-16T19:52:27.954Z,14.42
2023-05-16T19:54:57.121Z,14.41
2023-05-16T19:57:26.045Z,14.40
2023-05-16T19:59:54.966Z,14.37
2023-05-16T20:02:24.712Z,14.34
2023-05-16T20:04:53.900Z,14.30
2023-05-16T20:07:23.942Z,14.27
2023-05-16T20:09:55.528Z,14.23
2023-05-16T20:12:25.821Z,14.21
2023-05-16T20:14:54.775Z,14.19
2023-05-16T20:17:24.233Z,14.20
2023-05-16T20:19:54.330Z,14.20
2023-05-16T20:22:23.725Z,14.19
2023-05-16T20:24:52.889Z,14.17
2023-05-16T20:27:25.196Z,14.13
2023-05-16T20:29:55.133Z,14.09
2023-05-16T20:32:24.236Z,14.05
2023-05-16T20:34:53.451Z,14.01
2023-05-16T20:37:26.789Z,13.98
2023-05-16T20:39:56.328Z,13.98
2023-05-16T20:42:25.292Z,14.00
2023-05-16T20:44:56.552Z,14.02
2023-05-16T20:47:25.797Z,14.03
2023-05-16T20:49:55.082Z,14.00
2023-05-16T20:52:24.073Z,13.96
2023-05-16T20:54:53.081Z,13.93
2023-05-16T20:57:25.698Z,13.91
2023-05-16T20:59:55.044Z,13.88
2023-05-16T21:02:24.111Z,13.87
2023-05-16T21:04:57.474Z,13.86
2023-05-16T21:07:28.227Z,13.86
2023-05-16T21:09:57.475Z,13.87
2023-05-16T21:12:26.778Z,13.87
2023-05-16T21:14:56.758Z,13.88
2023-05-16T21:17:25.631Z,13.92
2023-05-16T21:19:54.705Z,13.97
2023-05-16T21:22:24.352Z,13.99
2023-05-16T21:24:53.292Z,13.94
2023-05-16T21:27:24.381Z,13.88
2023-05-16T21:29:53.159Z,13.83
2023-05-16T21:32:31.444Z,13.80
2023-05-16T21:35:03.747Z,13.78
2023-05-16T21:37:32.865Z,13.75
2023-05-16T21:40:01.996Z,13.73
2023-05-16T21:42:30.694Z,13.73
2023-05-16T21:44:59.610Z,13.72
2023-05-16T21:47:28.642Z,13.71
2023-05-16T21:49:57.532Z,13.70
2023-05-16T21:52:26.527Z,13.71
2023-05-16T21:54:56.449Z,13.70
2023-05-16T21:57:25.217Z,13.68
2023-05-16T21:59:57.432Z,13.65
2023-05-16T22:02:30.550Z,13.63
2023-05-16T22:05:02.842Z,13.63
2023-05-16T22:07:34.230Z,13.66
2023-05-16T22:10:14.441Z,13.72
2023-05-16T22:12:49.876Z,13.72
2023-05-16T22:15:18.698Z,13.73
2023-05-16T22:17:51.343Z,13.76
2023-05-16T22:20:21.184Z,13.81
2023-05-16T22:22:53.167Z,13.82
2023-05-16T22:25:22.365Z,13.78
2023-05-16T22:27:51.293Z,13.73
2023-05-16T22:30:23.225Z,13.67
2023-05-16T22:32:54.494Z,13.63
2023-05-16T22:35:30.946Z,13.61
2023-05-16T22:38:01.808Z,13.59
2023-05-16T22:40:34.381Z,13.58
2023-05-16T22:43:05.863Z,13.57
2023-05-16T22:45:35.907Z,13.56
2023-05-16T22:48:06.273Z,13.55
2023-05-16T22:50:36.197Z,13.53
2023-05-16T22:53:09.507Z,13.54
2023-05-16T22:55:38.900Z,13.58
2023-05-16T22:58:09.838Z,13.63
2023-05-16T23:00:41.321Z,13.61
2023-05-16T23:03:13.284Z,13.55
2023-05-16T23:05:42.481Z,13.53
2023-05-16T23:08:16.775Z,13.56
2023-05-16T23:10:45.956Z,13.63
2023-05-16T23:13:17.568Z,13.65
2023-05-16T23:15:46.950Z,13.64
2023-05-16T23:18:28.066Z,13.64
2023-05-16T23:20:59.926Z,13.64
2023-05-16T23:23:31.062Z,13.61
2023-05-16T23:26:03.503Z,13.60
2023-05-16T23:28:36.520Z,13.63
2023-05-16T23:31:10.535Z,13.62
2023-05-16T23:33:39.816Z,13.58
2023-05-16T23:36:09.847Z,13.54
2023-05-16T23:38:38.883Z,13.52
2023-05-16T23:41:12.831Z,13.51
2023-05-16T23:43:41.989Z,13.49
2023-05-16T23:46:11.384Z,13.47
2023-05-16T23:48:41.833Z,13.47
2023-05-16T23:51:11.793Z,13.46
2023-05-16T23:53:41.616Z,13.47
2023-05-16T23:56:24.140Z,13.57
2023-05-16T23:58:57.150Z,13.63
